Time;durP1;ratioP1;P1;durP2;ratioP2;P2;SDS_P1;SDS_P2;PMS_P1;PMS_P2;Temp;Humidity;BMP_temperature;BMP_pressure;BME280_temperature;BME280_humidity;BME280_pressure;Samples;Min_cycle;Max_cycle;Signal;HPM_P1;HPM_P2
2022/05/17 07:14:03;;;;;;;4.65;3.60;;;;;;;;;;12876093;23;20013;-86
2022/05/17 10:33:26;;;;;;;8.15;5.22;;;;;;;;;;12878696;23;20032;-87
2022/05/17 10:38:29;;;;;;;6.90;4.53;;;;;;;;;;12841056;23;20076;-88
2022/05/17 10:43:30;;;;;;;10.02;4.57;;;;;;;;;;12843247;23;20078;-89
2022/05/17 10:48:48;;;;;;;8.35;4.40;;;;;;;;;;12848720;23;20034;-85
2022/05/17 10:53:56;;;;;;;7.78;4.28;;;;;;;;;;12851869;23;20005;-85
2022/05/17 10:59:02;;;;;;;8.90;4.93;;;;;;;;;;12852422;23;20084;-86
2022/05/17 11:04:57;;;;;;;5.97;3.83;;;;;;;;;;12859787;23;20377;-85
2022/05/17 11:10:26;;;;;;;6.53;4.40;;;;;;;;;;12853540;23;20009;-86
2022/05/17 11:15:32;;;;;;;7.25;4.68;;;;;;;;;;12854517;23;20009;-85
2022/05/17 11:20:39;;;;;;;9.50;5.88;;;;;;;;;;12869191;23;20011;-85
2022/05/17 11:25:47;;;;;;;9.23;5.53;;;;;;;;;;12892792;23;20032;-84
2022/05/17 11:30:53;;;;;;;9.18;4.40;;;;;;;;;;12892553;23;20024;-82
2022/05/17 11:35:56;;;;;;;6.70;4.65;;;;;;;;;;12855555;23;20013;-83
2022/05/17 11:40:58;;;;;;;6.47;3.95;;;;;;;;;;12855921;23;19997;-82
2022/05/17 11:46:03;;;;;;;6.60;3.67;;;;;;;;;;12854965;23;20092;-83
2022/05/17 11:51:04;;;;;;;9.27;5.80;;;;;;;;;;12854079;23;20012;-83
2022/05/17 11:56:11;;;;;;;8.20;4.57;;;;;;;;;;12847193;23;20006;-85
2022/05/17 12:01:31;;;;;;;8.80;5.30;;;;;;;;;;12816690;23;20009;-84
2022/05/17 12:06:36;;;;;;;5.75;4.07;;;;;;;;;;12818218;23;20009;-85
2022/05/17 12:11:42;;;;;;;6.80;4.05;;;;;;;;;;12814230;23;20334;-84
2022/05/17 12:16:48;;;;;;;11.93;7.43;;;;;;;;;;12814368;23;20012;-85
2022/05/17 12:22:06;;;;;;;7.05;4.30;;;;;;;;;;12818297;23;20450;-85
2022/05/17 12:27:25;;;;;;;6.30;4.30;;;;;;;;;;12813043;23;20009;-86
2022/05/17 12:32:27;;;;;;;10.73;5.15;;;;;;;;;;12813509;23;20009;-86
2022/05/17 12:37:29;;;;;;;7.25;4.50;;;;;;;;;;12847157;23;20444;-85
2022/05/17 12:47:52;;;;;;;8.07;4.47;;;;;;;;;;12881445;23;20013;-86
2022/05/17 12:52:56;;;;;;;8.93;4.70;;;;;;;;;;12844232;23;20083;-88
2022/05/17 12:58:08;;;;;;;5.38;3.75;;;;;;;;;;12842062;23;20004;-88
2022/05/17 13:03:19;;;;;;;5.75;3.28;;;;;;;;;;12868796;23;20069;-88
2022/05/17 13:08:22;;;;;;;8.07;4.53;;;;;;;;;;12851178;23;20032;-90
2022/05/17 13:13:23;;;;;;;10.77;4.22;;;;;;;;;;12873248;23;20001;-88
2022/05/17 13:18:29;;;;;;;7.88;3.95;;;;;;;;;;12874222;23;20016;-87
2022/05/17 13:23:30;;;;;;;7.30;3.72;;;;;;;;;;12886100;23;20007;-87
2022/05/17 13:28:36;;;;;;;4.88;3.17;;;;;;;;;;12887767;23;20012;-83
2022/05/17 13:33:44;;;;;;;6.05;3.15;;;;;;;;;;12873222;23;20039;-83
2022/05/17 13:38:48;;;;;;;4.63;3.20;;;;;;;;;;12864684;23;20020;-84
2022/05/17 13:43:54;;;;;;;13.32;5.20;;;;;;;;;;12856014;23;20016;-84
2022/05/17 13:49:02;;;;;;;9.45;6.93;;;;;;;;;;12854343;23;20001;-85
2022/05/17 13:54:22;;;;;;;6.72;3.72;;;;;;;;;;12879983;23;19997;-85
2022/05/17 13:59:23;;;;;;;6.65;3.38;;;;;;;;;;12881070;23;20001;-86
2022/05/17 14:04:27;;;;;;;5.00;3.10;;;;;;;;;;12849454;23;20088;-85
2022/05/17 14:14:50;;;;;;;4.30;2.78;;;;;;;;;;12876141;23;20009;-85
2022/05/17 14:19:56;;;;;;;3.83;2.97;;;;;;;;;;12856417;23;20008;-81
2022/05/17 14:24:57;;;;;;;5.32;3.28;;;;;;;;;;12857439;23;20008;-84
2022/05/17 14:29:58;;;;;;;9.15;3.63;;;;;;;;;;12859962;23;20139;-81
2022/05/17 14:34:59;;;;;;;11.48;5.82;;;;;;;;;;12855192;23;20012;-81
2022/05/17 14:40:00;;;;;;;6.88;4.00;;;;;;;;;;12854672;23;20004;-83
2022/05/17 14:45:01;;;;;;;10.15;4.97;;;;;;;;;;12853050;23;20059;-83
2022/05/17 14:50:02;;;;;;;5.60;3.47;;;;;;;;;;12863275;23;20005;-82
2022/05/17 14:55:03;;;;;;;6.75;3.65;;;;;;;;;;12868190;23;20000;-82
2022/05/17 15:00:09;;;;;;;5.75;3.00;;;;;;;;;;12867796;23;20028;-83
2022/05/17 15:05:10;;;;;;;9.00;4.13;;;;;;;;;;12869666;23;20001;-82
2022/05/17 15:10:13;;;;;;;7.90;3.63;;;;;;;;;;12858989;23;20433;-84
2022/05/17 15:15:15;;;;;;;4.57;3.00;;;;;;;;;;12847347;23;19997;-84
2022/05/17 15:20:19;;;;;;;7.45;3.03;;;;;;;;;;12849188;23;20432;-83
2022/05/17 15:25:21;;;;;;;7.70;3.03;;;;;;;;;;12847911;23;20009;-83
2022/05/17 15:30:23;;;;;;;6.40;3.22;;;;;;;;;;12847292;23;20055;-83
2022/05/17 15:35:26;;;;;;;5.25;2.58;;;;;;;;;;12846542;23;20103;-83
2022/05/17 15:40:27;;;;;;;6.70;2.70;;;;;;;;;;12848479;23;20432;-82
2022/05/17 15:45:28;;;;;;;7.22;2.97;;;;;;;;;;12847859;23;20023;-81
2022/05/17 15:55:55;;;;;;;6.05;3.20;;;;;;;;;;12874772;23;20008;-84
2022/05/17 16:00:56;;;;;;;6.15;3.05;;;;;;;;;;12874804;23;20001;-82
2022/05/17 16:05:58;;;;;;;6.90;3.78;;;;;;;;;;12848282;23;20009;-83
2022/05/17 16:11:47;;;;;;;4.65;2.80;;;;;;;;;;12847104;23;20012;-82
2022/05/17 16:16:20;;;;;;;5.38;2.88;;;;;;;;;;12871836;23;20005;-84
2022/05/17 16:21:21;;;;;;;11.40;5.90;;;;;;;;;;12845370;23;20091;-85
2022/05/17 16:26:22;;;;;;;6.57;3.10;;;;;;;;;;12846113;23;20365;-89
2022/05/17 16:31:25;;;;;;;8.15;3.13;;;;;;;;;;12856631;23;20008;-89
2022/05/17 16:36:26;;;;;;;5.13;3.05;;;;;;;;;;12854136;23;20070;-89
2022/05/17 16:41:27;;;;;;;7.32;3.55;;;;;;;;;;12857717;23;20005;-89
2022/05/17 16:46:34;;;;;;;5.63;3.08;;;;;;;;;;12857533;23;20012;-89
2022/05/17 16:57:27;;;;;;;10.68;6.90;;;;;;;;;;12636480;23;20002;-90
2022/05/17 17:02:52;;;;;;;7.97;3.33;;;;;;;;;;12612111;23;20057;-89
2022/05/17 17:08:05;;;;;;;7.13;3.28;;;;;;;;;;12770308;23;20064;-90
2022/05/17 17:13:10;;;;;;;7.88;3.78;;;;;;;;;;12857291;23;20066;-89
2022/05/17 17:18:17;;;;;;;6.57;3.15;;;;;;;;;;12856358;23;20001;-89
2022/05/17 17:28:49;;;;;;;6.35;3.20;;;;;;;;;;12837224;23;20397;-89
2022/05/17 17:39:25;;;;;;;6.90;3.50;;;;;;;;;;12881576;23;20352;-89
2022/05/17 17:44:35;;;;;;;6.73;3.40;;;;;;;;;;12860195;23;20001;-89
2022/05/17 17:49:36;;;;;;;6.38;2.90;;;;;;;;;;12854821;23;20012;-89
2022/05/17 17:54:52;;;;;;;5.70;3.20;;;;;;;;;;12853125;23;20066;-87
2022/05/17 18:00:12;;;;;;;6.78;3.50;;;;;;;;;;12882932;23;20000;-88
2022/05/17 18:05:40;;;;;;;;;;;;;;;;;;;;;
2022/05/17 18:11:34;;;;;;;6.90;3.75;;;;;;;;;;12794323;23;20091;-88
2022/05/17 18:16:25;;;;;;;5.28;2.70;;;;;;;;;;12845342;23;20012;-88
2022/05/17 18:21:43;;;;;;;8.07;3.78;;;;;;;;;;12854763;23;20503;-88
2022/05/17 18:27:08;;;;;;;11.20;3.80;;;;;;;;;;12856060;23;20048;-89
2022/05/17 18:32:41;;;;;;;7.38;4.13;;;;;;;;;;12857952;23;20012;-88
2022/05/17 18:37:57;;;;;;;6.00;3.38;;;;;;;;;;12881520;23;20009;-89
2022/05/17 18:54:44;;;;;;;5.65;3.60;;;;;;;;;;12820881;23;20039;-89
2022/05/17 19:00:10;;;;;;;4.88;3.55;;;;;;;;;;12857588;23;20059;-89
2022/05/17 19:05:36;;;;;;;5.45;2.70;;;;;;;;;;12870805;23;20419;-89
2022/05/17 19:16:05;;;;;;;4.47;3.35;;;;;;;;;;12912721;23;20012;-88
2022/05/17 19:21:16;;;;;;;4.90;3.00;;;;;;;;;;12894899;23;20048;-88
2022/05/17 19:26:32;;;;;;;;;;;;;;;;;;12873807;23;20005;-88
